Aérodrome :
LOGIN :

S'inscrire | Disclaimer

   EN    FR    IT 

 










Légende :    VFR   VFR Marginal   IFR   IFR Intensif   IFR Très Intensif
Visi : 
Plafond : 
>= 8 km
>= 3000ft
5 à 8 km
1000 à 3000 ft
1500m à 5 km
500 à 1000 ft
800 à 1500m
200 à 500 ft
< 800m
< 200 ft
Symboles :   Orages  Brouillard  Fortes neiges  Fortes précipitations  Vent > 20 kt
SIGMETs :   Divers  Orages  Givrage  Turbulence  Onde Orograph.  Cendres Volcan.







- Altitude de l'aérodrome : 479 ft
- Code IATA : DOL
- Voir les cartes d'approche


LFRG - Deauville

DERNIER METAR :
  • 281200Z AUTO VRB03KT 9999 FEW030/// SCT035/// ///CB 22/15 Q0997 TEMPO 3000 TSRA

METARs EXPIRÉS :
  • 281130Z AUTO 19004KT 130V230 9999 SCT022/// SCT029/// BKN047/// ///CB 21/15 Q0997 TEMPO 3000 TSRA
  • 281100Z AUTO 25005KT 190V290 9999 SCT018 BKN041 OVC048 20/16 Q0998 TEMPO 3000 TSRA BKN015CB
  • 281030Z AUTO 20006KT 140V260 9999 BKN017 BKN044 BKN070 20/15 Q0998 TEMPO 3000 TSRA BKN015CB
  • 281000Z AUTO 21007KT 180V260 9999 BKN014 OVC042 19/15 Q0998 TEMPO 4000 SHRA BKN015CB
  • 280930Z AUTO 23006KT 190V280 9999 OVC012 18/15 Q0998 TEMPO 4000 SHRA BKN015CB

TAF TAF LFRG
Valide du 28 à 12h jusqu'au 28 à 21h UTC


281100Z 2812/2821 24007KT 9999 BKN020
TEMPO 2812/2816 4000 SHRA BKN015CB
PROB30
TEMPO 2812/2816 3000 TSRA
BECMG 2813/2815 30007KT
TEMPO 2816/2821 5000 SHRA BKN008 BKN015TCU
ATIS : +33 2 31 65 65 36
Pas de NOTAMs connus pour ce terrain.



MET'MAP, la Météo Aéronautique d'un coup d'oeil ! - Copyright ORBIFLY Décembre 2007 - Disclaimer

ORBIFLY MET'MAP TEAM :

Programmation & Développement : Alexandra Zaïnal
Conception & Développement : Baudouin d'Aumeries
Co-Programmation & Développement : Marc-Olivier Méhu
Soutien technique & logistique : Manuel Goepfert

Contact : metmap@orbifly.com




SOURCES & CREDITS :

   NOAA